sensor_id;sensor_type;location;lat;lon;timestamp;P1;durP1;ratioP1;P2;durP2;ratioP2
26516;SDS011;14190;51.342;6.338;2024-02-21T00:00:51;10.38;;;4.70;;
26516;SDS011;14190;51.342;6.338;2024-02-21T00:03:19;15.30;;;3.25;;
26516;SDS011;14190;51.342;6.338;2024-02-21T00:05:46;11.53;;;4.00;;
26516;SDS011;14190;51.342;6.338;2024-02-21T00:08:14;7.30;;;3.55;;
26516;SDS011;14190;51.342;6.338;2024-02-21T00:10:41;8.20;;;4.10;;
26516;SDS011;14190;51.342;6.338;2024-02-21T00:13:09;15.83;;;3.95;;
26516;SDS011;14190;51.342;6.338;2024-02-21T00:15:36;4.92;;;2.55;;
26516;SDS011;14190;51.342;6.338;2024-02-21T00:18:04;14.50;;;3.90;;
26516;SDS011;14190;51.342;6.338;2024-02-21T00:20:31;17.37;;;3.77;;
26516;SDS011;14190;51.342;6.338;2024-02-21T00:22:59;7.55;;;3.33;;
26516;SDS011;14190;51.342;6.338;2024-02-21T00:25:26;10.05;;;4.40;;
26516;SDS011;14190;51.342;6.338;2024-02-21T00:27:54;6.20;;;1.62;;
26516;SDS011;14190;51.342;6.338;2024-02-21T00:30:21;11.15;;;4.55;;
26516;SDS011;14190;51.342;6.338;2024-02-21T00:32:48;14.23;;;3.08;;
26516;SDS011;14190;51.342;6.338;2024-02-21T00:35:16;16.35;;;3.50;;
26516;SDS011;14190;51.342;6.338;2024-02-21T00:37:43;4.67;;;2.83;;
26516;SDS011;14190;51.342;6.338;2024-02-21T00:40:11;7.92;;;3.27;;
26516;SDS011;14190;51.342;6.338;2024-02-21T00:42:38;4.95;;;2.85;;
26516;SDS011;14190;51.342;6.338;2024-02-21T00:45:05;12.05;;;3.98;;
26516;SDS011;14190;51.342;6.338;2024-02-21T00:47:34;11.05;;;3.98;;
26516;SDS011;14190;51.342;6.338;2024-02-21T00:50:01;6.42;;;2.15;;
26516;SDS011;14190;51.342;6.338;2024-02-21T00:52:29;12.03;;;3.62;;
26516;SDS011;14190;51.342;6.338;2024-02-21T00:54:56;14.47;;;4.72;;
26516;SDS011;14190;51.342;6.338;2024-02-21T00:57:23;15.63;;;3.25;;
26516;SDS011;14190;51.342;6.338;2024-02-21T00:59:51;5.08;;;2.10;;
26516;SDS011;14190;51.342;6.338;2024-02-21T01:02:18;52.45;;;4.28;;
26516;SDS011;14190;51.342;6.338;2024-02-21T01:04:46;7.90;;;2.08;;
26516;SDS011;14190;51.342;6.338;2024-02-21T01:07:13;11.93;;;2.83;;
26516;SDS011;14190;51.342;6.338;2024-02-21T01:09:40;5.30;;;2.40;;
26516;SDS011;14190;51.342;6.338;2024-02-21T01:12:08;11.83;;;2.80;;
26516;SDS011;14190;51.342;6.338;2024-02-21T01:14:35;5.12;;;2.17;;
26516;SDS011;14190;51.342;6.338;2024-02-21T01:17:02;4.65;;;2.42;;
26516;SDS011;14190;51.342;6.338;2024-02-21T01:19:31;8.15;;;2.12;;
26516;SDS011;14190;51.342;6.338;2024-02-21T01:21:59;7.05;;;3.55;;
26516;SDS011;14190;51.342;6.338;2024-02-21T01:24:26;12.43;;;3.55;;
26516;SDS011;14190;51.342;6.338;2024-02-21T01:26:53;6.47;;;2.12;;
26516;SDS011;14190;51.342;6.338;2024-02-21T01:29:21;11.25;;;3.60;;
26516;SDS011;14190;51.342;6.338;2024-02-21T01:31:48;7.75;;;3.62;;
26516;SDS011;14190;51.342;6.338;2024-02-21T01:34:15;13.68;;;3.65;;
26516;SDS011;14190;51.342;6.338;2024-02-21T01:36:43;5.55;;;2.55;;
26516;SDS011;14190;51.342;6.338;2024-02-21T01:39:10;11.00;;;3.10;;
26516;SDS011;14190;51.342;6.338;2024-02-21T01:41:38;5.90;;;2.60;;
26516;SDS011;14190;51.342;6.338;2024-02-21T01:44:05;6.83;;;3.20;;
26516;SDS011;14190;51.342;6.338;2024-02-21T01:46:32;9.08;;;3.10;;
26516;SDS011;14190;51.342;6.338;2024-02-21T01:49:00;12.33;;;4.95;;
26516;SDS011;14190;51.342;6.338;2024-02-21T01:51:28;6.45;;;2.85;;
26516;SDS011;14190;51.342;6.338;2024-02-21T01:53:55;6.87;;;3.33;;
26516;SDS011;14190;51.342;6.338;2024-02-21T01:56:24;9.80;;;3.40;;
26516;SDS011;14190;51.342;6.338;2024-02-21T01:58:51;13.50;;;3.47;;
26516;SDS011;14190;51.342;6.338;2024-02-21T02:01:18;4.22;;;2.85;;
26516;SDS011;14190;51.342;6.338;2024-02-21T02:03:46;6.00;;;2.08;;
26516;SDS011;14190;51.342;6.338;2024-02-21T02:06:14;4.70;;;2.15;;
26516;SDS011;14190;51.342;6.338;2024-02-21T02:08:41;7.85;;;2.62;;
26516;SDS011;14190;51.342;6.338;2024-02-21T02:11:09;3.62;;;2.05;;
26516;SDS011;14190;51.342;6.338;2024-02-21T02:13:36;9.18;;;2.77;;
26516;SDS011;14190;51.342;6.338;2024-02-21T02:16:04;4.90;;;2.20;;
26516;SDS011;14190;51.342;6.338;2024-02-21T02:18:32;5.30;;;2.67;;
26516;SDS011;14190;51.342;6.338;2024-02-21T02:20:59;11.00;;;3.15;;
26516;SDS011;14190;51.342;6.338;2024-02-21T02:23:30;10.13;;;4.08;;
26516;SDS011;14190;51.342;6.338;2024-02-21T02:26:00;4.85;;;2.77;;
26516;SDS011;14190;51.342;6.338;2024-02-21T02:28:28;4.80;;;2.60;;
26516;SDS011;14190;51.342;6.338;2024-02-21T02:30:55;9.90;;;3.47;;
26516;SDS011;14190;51.342;6.338;2024-02-21T02:33:23;4.30;;;2.62;;
26516;SDS011;14190;51.342;6.338;2024-02-21T02:35:50;5.08;;;3.00;;
26516;SDS011;14190;51.342;6.338;2024-02-21T02:38:17;6.00;;;3.67;;
26516;SDS011;14190;51.342;6.338;2024-02-21T02:40:45;8.90;;;3.00;;
26516;SDS011;14190;51.342;6.338;2024-02-21T02:43:12;5.80;;;2.52;;
26516;SDS011;14190;51.342;6.338;2024-02-21T02:45:39;7.53;;;3.80;;
26516;SDS011;14190;51.342;6.338;2024-02-21T02:48:07;6.03;;;1.82;;
26516;SDS011;14190;51.342;6.338;2024-02-21T02:50:34;13.83;;;2.42;;
26516;SDS011;14190;51.342;6.338;2024-02-21T02:53:02;4.15;;;2.95;;
26516;SDS011;14190;51.342;6.338;2024-02-21T02:55:29;5.10;;;4.25;;
26516;SDS011;14190;51.342;6.338;2024-02-21T02:57:56;16.97;;;3.30;;
26516;SDS011;14190;51.342;6.338;2024-02-21T03:00:24;6.40;;;4.10;;
26516;SDS011;14190;51.342;6.338;2024-02-21T03:02:51;7.20;;;2.95;;
26516;SDS011;14190;51.342;6.338;2024-02-21T03:05:20;4.60;;;1.92;;
26516;SDS011;14190;51.342;6.338;2024-02-21T03:07:48;2.08;;;1.90;;
26516;SDS011;14190;51.342;6.338;2024-02-21T03:10:15;4.65;;;2.75;;
26516;SDS011;14190;51.342;6.338;2024-02-21T03:15:12;5.72;;;2.58;;
26516;SDS011;14190;51.342;6.338;2024-02-21T03:17:40;6.25;;;2.65;;
26516;SDS011;14190;51.342;6.338;2024-02-21T03:20:08;4.30;;;1.62;;
26516;SDS011;14190;51.342;6.338;2024-02-21T03:22:36;6.08;;;2.58;;
26516;SDS011;14190;51.342;6.338;2024-02-21T03:25:04;11.65;;;2.85;;
26516;SDS011;14190;51.342;6.338;2024-02-21T03:27:31;10.82;;;4.67;;
26516;SDS011;14190;51.342;6.338;2024-02-21T03:29:59;4.17;;;1.92;;
26516;SDS011;14190;51.342;6.338;2024-02-21T03:32:26;6.28;;;3.00;;
26516;SDS011;14190;51.342;6.338;2024-02-21T03:34:55;10.32;;;2.80;;
26516;SDS011;14190;51.342;6.338;2024-02-21T03:37:23;6.62;;;3.27;;
26516;SDS011;14190;51.342;6.338;2024-02-21T03:39:50;5.47;;;2.37;;
26516;SDS011;14190;51.342;6.338;2024-02-21T03:42:17;5.85;;;2.50;;
26516;SDS011;14190;51.342;6.338;2024-02-21T03:44:45;7.92;;;3.67;;
26516;SDS011;14190;51.342;6.338;2024-02-21T03:47:12;8.58;;;2.47;;
26516;SDS011;14190;51.342;6.338;2024-02-21T03:49:39;9.73;;;3.87;;
26516;SDS011;14190;51.342;6.338;2024-02-21T03:52:07;6.97;;;2.30;;
26516;SDS011;14190;51.342;6.338;2024-02-21T03:54:35;6.47;;;2.60;;
26516;SDS011;14190;51.342;6.338;2024-02-21T03:57:02;3.60;;;2.67;;
26516;SDS011;14190;51.342;6.338;2024-02-21T03:59:30;10.38;;;3.27;;
26516;SDS011;14190;51.342;6.338;2024-02-21T04:01:57;1.22;;;1.12;;
26516;SDS011;14190;51.342;6.338;2024-02-21T04:04:25;5.70;;;3.17;;
26516;SDS011;14190;51.342;6.338;2024-02-21T04:06:52;8.23;;;2.02;;
26516;SDS011;14190;51.342;6.338;2024-02-21T04:09:19;3.40;;;2.65;;
26516;SDS011;14190;51.342;6.338;2024-02-21T04:11:47;3.65;;;1.87;;
26516;SDS011;14190;51.342;6.338;2024-02-21T04:14:14;3.55;;;1.62;;
26516;SDS011;14190;51.342;6.338;2024-02-21T04:16:42;1.37;;;1.27;;
26516;SDS011;14190;51.342;6.338;2024-02-21T04:19:09;4.60;;;2.15;;
26516;SDS011;14190;51.342;6.338;2024-02-21T04:21:37;3.25;;;1.55;;
26516;SDS011;14190;51.342;6.338;2024-02-21T04:24:04;2.80;;;1.17;;
26516;SDS011;14190;51.342;6.338;2024-02-21T04:26:32;3.80;;;1.67;;
26516;SDS011;14190;51.342;6.338;2024-02-21T04:28:59;2.40;;;1.65;;
26516;SDS011;14190;51.342;6.338;2024-02-21T04:31:27;6.80;;;1.17;;
26516;SDS011;14190;51.342;6.338;2024-02-21T04:33:54;3.10;;;1.62;;
26516;SDS011;14190;51.342;6.338;2024-02-21T04:36:21;4.65;;;2.25;;
26516;SDS011;14190;51.342;6.338;2024-02-21T04:38:50;5.47;;;1.70;;
26516;SDS011;14190;51.342;6.338;2024-02-21T04:41:17;4.12;;;1.80;;
26516;SDS011;14190;51.342;6.338;2024-02-21T04:43:47;5.37;;;1.25;;
26516;SDS011;14190;51.342;6.338;2024-02-21T04:46:15;2.20;;;1.30;;
26516;SDS011;14190;51.342;6.338;2024-02-21T04:48:43;6.35;;;1.52;;
26516;SDS011;14190;51.342;6.338;2024-02-21T04:51:11;1.87;;;1.77;;
26516;SDS011;14190;51.342;6.338;2024-02-21T04:53:40;7.25;;;1.67;;
26516;SDS011;14190;51.342;6.338;2024-02-21T04:56:07;9.83;;;1.65;;
26516;SDS011;14190;51.342;6.338;2024-02-21T04:58:37;8.40;;;1.25;;
26516;SDS011;14190;51.342;6.338;2024-02-21T05:01:03;4.35;;;2.00;;
26516;SDS011;14190;51.342;6.338;2024-02-21T05:03:31;7.85;;;1.50;;
26516;SDS011;14190;51.342;6.338;2024-02-21T05:05:58;4.22;;;2.02;;
26516;SDS011;14190;51.342;6.338;2024-02-21T05:08:26;4.83;;;1.50;;
26516;SDS011;14190;51.342;6.338;2024-02-21T05:10:54;3.02;;;1.55;;
26516;SDS011;14190;51.342;6.338;2024-02-21T05:13:21;1.95;;;1.67;;
26516;SDS011;14190;51.342;6.338;2024-02-21T05:15:49;4.67;;;1.98;;
26516;SDS011;14190;51.342;6.338;2024-02-21T05:18:16;5.70;;;2.77;;
26516;SDS011;14190;51.342;6.338;2024-02-21T05:20:44;3.95;;;2.45;;
26516;SDS011;14190;51.342;6.338;2024-02-21T05:23:11;11.35;;;1.85;;
26516;SDS011;14190;51.342;6.338;2024-02-21T05:25:39;4.92;;;1.85;;
26516;SDS011;14190;51.342;6.338;2024-02-21T05:28:06;1.37;;;1.27;;
26516;SDS011;14190;51.342;6.338;2024-02-21T05:30:33;10.58;;;3.12;;
26516;SDS011;14190;51.342;6.338;2024-02-21T05:33:04;2.80;;;1.82;;
26516;SDS011;14190;51.342;6.338;2024-02-21T05:35:32;5.35;;;1.98;;
26516;SDS011;14190;51.342;6.338;2024-02-21T05:38:00;4.87;;;2.90;;
26516;SDS011;14190;51.342;6.338;2024-02-21T05:40:27;10.95;;;2.75;;
26516;SDS011;14190;51.342;6.338;2024-02-21T05:42:54;3.65;;;2.00;;
26516;SDS011;14190;51.342;6.338;2024-02-21T05:45:22;1.95;;;1.45;;
26516;SDS011;14190;51.342;6.338;2024-02-21T05:47:50;1.82;;;1.15;;
26516;SDS011;14190;51.342;6.338;2024-02-21T05:50:17;3.30;;;1.80;;
26516;SDS011;14190;51.342;6.338;2024-02-21T05:52:44;1.52;;;1.40;;
26516;SDS011;14190;51.342;6.338;2024-02-21T05:55:12;4.00;;;1.92;;
26516;SDS011;14190;51.342;6.338;2024-02-21T05:57:41;5.37;;;2.15;;
26516;SDS011;14190;51.342;6.338;2024-02-21T06:00:08;3.52;;;1.77;;
26516;SDS011;14190;51.342;6.338;2024-02-21T06:02:38;2.65;;;1.40;;
26516;SDS011;14190;51.342;6.338;2024-02-21T06:05:06;2.92;;;1.35;;
26516;SDS011;14190;51.342;6.338;2024-02-21T06:07:34;5.80;;;1.80;;
26516;SDS011;14190;51.342;6.338;2024-02-21T06:10:02;6.05;;;1.45;;
26516;SDS011;14190;51.342;6.338;2024-02-21T06:12:29;5.35;;;1.50;;
26516;SDS011;14190;51.342;6.338;2024-02-21T06:14:57;8.55;;;2.00;;
26516;SDS011;14190;51.342;6.338;2024-02-21T06:17:24;8.00;;;1.70;;
26516;SDS011;14190;51.342;6.338;2024-02-21T06:19:51;4.40;;;2.22;;
26516;SDS011;14190;51.342;6.338;2024-02-21T06:22:19;16.02;;;2.08;;
26516;SDS011;14190;51.342;6.338;2024-02-21T06:24:46;6.78;;;2.40;;
26516;SDS011;14190;51.342;6.338;2024-02-21T06:27:13;4.28;;;2.05;;
26516;SDS011;14190;51.342;6.338;2024-02-21T06:29:42;1.95;;;1.50;;
26516;SDS011;14190;51.342;6.338;2024-02-21T06:32:10;1.42;;;1.32;;
26516;SDS011;14190;51.342;6.338;2024-02-21T06:34:37;2.10;;;1.87;;
26516;SDS011;14190;51.342;6.338;2024-02-21T06:37:04;5.03;;;2.52;;
26516;SDS011;14190;51.342;6.338;2024-02-21T06:39:32;8.55;;;1.45;;
26516;SDS011;14190;51.342;6.338;2024-02-21T06:41:59;8.23;;;3.85;;
26516;SDS011;14190;51.342;6.338;2024-02-21T06:44:26;5.87;;;2.15;;
26516;SDS011;14190;51.342;6.338;2024-02-21T06:46:54;9.35;;;2.52;;
26516;SDS011;14190;51.342;6.338;2024-02-21T06:49:22;3.80;;;3.15;;
26516;SDS011;14190;51.342;6.338;2024-02-21T06:51:49;15.18;;;1.77;;
26516;SDS011;14190;51.342;6.338;2024-02-21T06:54:16;6.40;;;2.22;;
26516;SDS011;14190;51.342;6.338;2024-02-21T06:56:44;4.83;;;1.50;;
26516;SDS011;14190;51.342;6.338;2024-02-21T06:59:11;2.60;;;1.65;;
26516;SDS011;14190;51.342;6.338;2024-02-21T07:01:40;8.10;;;2.42;;
26516;SDS011;14190;51.342;6.338;2024-02-21T07:04:09;3.15;;;1.00;;
26516;SDS011;14190;51.342;6.338;2024-02-21T07:06:36;4.95;;;1.65;;
26516;SDS011;14190;51.342;6.338;2024-02-21T07:09:04;3.22;;;1.80;;
26516;SDS011;14190;51.342;6.338;2024-02-21T07:11:31;7.25;;;1.95;;
26516;SDS011;14190;51.342;6.338;2024-02-21T07:13:58;2.15;;;1.37;;
26516;SDS011;14190;51.342;6.338;2024-02-21T07:16:26;2.67;;;0.75;;
26516;SDS011;14190;51.342;6.338;2024-02-21T07:18:55;3.83;;;1.50;;
26516;SDS011;14190;51.342;6.338;2024-02-21T07:21:22;6.92;;;1.98;;
26516;SDS011;14190;51.342;6.338;2024-02-21T07:23:49;1.82;;;1.72;;
26516;SDS011;14190;51.342;6.338;2024-02-21T07:26:17;2.08;;;1.62;;
26516;SDS011;14190;51.342;6.338;2024-02-21T07:28:44;4.53;;;1.67;;
26516;SDS011;14190;51.342;6.338;2024-02-21T07:31:12;3.05;;;1.25;;
26516;SDS011;14190;51.342;6.338;2024-02-21T07:33:40;6.87;;;2.50;;
26516;SDS011;14190;51.342;6.338;2024-02-21T07:36:07;3.55;;;1.27;;
26516;SDS011;14190;51.342;6.338;2024-02-21T07:38:35;3.50;;;1.00;;
26516;SDS011;14190;51.342;6.338;2024-02-21T07:41:02;4.92;;;1.80;;
26516;SDS011;14190;51.342;6.338;2024-02-21T07:43:30;3.45;;;1.70;;
26516;SDS011;14190;51.342;6.338;2024-02-21T07:45:57;6.90;;;2.92;;
26516;SDS011;14190;51.342;6.338;2024-02-21T07:48:25;1.95;;;1.00;;
26516;SDS011;14190;51.342;6.338;2024-02-21T07:50:53;14.80;;;1.95;;
26516;SDS011;14190;51.342;6.338;2024-02-21T07:53:20;2.95;;;2.37;;
26516;SDS011;14190;51.342;6.338;2024-02-21T07:55:48;0.60;;;0.60;;
26516;SDS011;14190;51.342;6.338;2024-02-21T07:58:15;7.60;;;1.82;;
26516;SDS011;14190;51.342;6.338;2024-02-21T08:00:43;2.10;;;1.70;;
26516;SDS011;14190;51.342;6.338;2024-02-21T08:03:10;2.95;;;1.77;;
26516;SDS011;14190;51.342;6.338;2024-02-21T08:05:37;2.92;;;0.98;;
26516;SDS011;14190;51.342;6.338;2024-02-21T08:08:05;3.08;;;1.80;;
26516;SDS011;14190;51.342;6.338;2024-02-21T08:10:34;3.00;;;2.15;;
26516;SDS011;14190;51.342;6.338;2024-02-21T08:13:01;1.65;;;1.55;;
26516;SDS011;14190;51.342;6.338;2024-02-21T08:15:29;1.95;;;0.95;;
26516;SDS011;14190;51.342;6.338;2024-02-21T08:17:56;5.45;;;1.22;;
26516;SDS011;14190;51.342;6.338;2024-02-21T08:20:25;4.00;;;1.77;;
26516;SDS011;14190;51.342;6.338;2024-02-21T08:22:53;5.28;;;2.77;;
26516;SDS011;14190;51.342;6.338;2024-02-21T08:25:20;1.90;;;1.72;;
26516;SDS011;14190;51.342;6.338;2024-02-21T08:27:47;8.85;;;2.27;;
26516;SDS011;14190;51.342;6.338;2024-02-21T08:30:15;3.00;;;1.42;;
26516;SDS011;14190;51.342;6.338;2024-02-21T08:32:42;2.87;;;1.80;;
26516;SDS011;14190;51.342;6.338;2024-02-21T08:35:09;1.90;;;1.20;;
26516;SDS011;14190;51.342;6.338;2024-02-21T08:37:37;5.17;;;1.40;;
26516;SDS011;14190;51.342;6.338;2024-02-21T08:40:05;4.15;;;1.87;;
26516;SDS011;14190;51.342;6.338;2024-02-21T08:42:35;2.42;;;1.30;;
26516;SDS011;14190;51.342;6.338;2024-02-21T08:45:03;2.52;;;1.17;;
26516;SDS011;14190;51.342;6.338;2024-02-21T08:47:30;0.98;;;0.95;;
26516;SDS011;14190;51.342;6.338;2024-02-21T08:49:57;3.42;;;1.42;;
26516;SDS011;14190;51.342;6.338;2024-02-21T08:52:25;8.10;;;2.02;;
26516;SDS011;14190;51.342;6.338;2024-02-21T08:54:52;22.07;;;2.30;;
26516;SDS011;14190;51.342;6.338;2024-02-21T08:57:20;1.27;;;1.10;;
26516;SDS011;14190;51.342;6.338;2024-02-21T08:59:47;1.87;;;1.67;;
26516;SDS011;14190;51.342;6.338;2024-02-21T09:02:15;2.40;;;1.55;;
26516;SDS011;14190;51.342;6.338;2024-02-21T09:04:45;8.08;;;1.90;;
26516;SDS011;14190;51.342;6.338;2024-02-21T09:07:13;3.60;;;1.52;;
26516;SDS011;14190;51.342;6.338;2024-02-21T09:09:40;2.52;;;1.40;;
26516;SDS011;14190;51.342;6.338;2024-02-21T09:12:07;14.75;;;1.62;;
26516;SDS011;14190;51.342;6.338;2024-02-21T09:14:36;2.83;;;1.00;;
26516;SDS011;14190;51.342;6.338;2024-02-21T09:17:06;3.83;;;1.72;;
26516;SDS011;14190;51.342;6.338;2024-02-21T09:19:33;20.17;;;1.57;;
26516;SDS011;14190;51.342;6.338;2024-02-21T09:22:00;8.45;;;2.25;;
26516;SDS011;14190;51.342;6.338;2024-02-21T09:24:28;3.22;;;1.32;;
26516;SDS011;14190;51.342;6.338;2024-02-21T09:26:55;6.65;;;1.77;;
26516;SDS011;14190;51.342;6.338;2024-02-21T09:29:23;2.15;;;1.42;;
26516;SDS011;14190;51.342;6.338;2024-02-21T09:31:50;3.58;;;1.62;;
26516;SDS011;14190;51.342;6.338;2024-02-21T09:34:18;4.75;;;2.37;;
26516;SDS011;14190;51.342;6.338;2024-02-21T09:36:45;8.80;;;2.37;;
26516;SDS011;14190;51.342;6.338;2024-02-21T09:39:13;1.25;;;1.07;;
26516;SDS011;14190;51.342;6.338;2024-02-21T09:41:43;2.37;;;1.60;;
26516;SDS011;14190;51.342;6.338;2024-02-21T09:44:11;2.75;;;1.12;;
26516;SDS011;14190;51.342;6.338;2024-02-21T09:46:52;1.30;;;1.00;;
26516;SDS011;14190;51.342;6.338;2024-02-21T09:51:53;5.15;;;1.22;;
26516;SDS011;14190;51.342;6.338;2024-02-21T09:54:21;1.15;;;0.85;;
26516;SDS011;14190;51.342;6.338;2024-02-21T09:56:48;1.98;;;1.10;;
26516;SDS011;14190;51.342;6.338;2024-02-21T09:59:16;9.75;;;2.15;;
26516;SDS011;14190;51.342;6.338;2024-02-21T10:01:43;4.05;;;1.57;;
26516;SDS011;14190;51.342;6.338;2024-02-21T10:04:13;2.17;;;1.20;;
26516;SDS011;14190;51.342;6.338;2024-02-21T10:06:40;4.97;;;1.32;;
26516;SDS011;14190;51.342;6.338;2024-02-21T10:09:08;4.05;;;1.47;;
26516;SDS011;14190;51.342;6.338;2024-02-21T10:11:35;3.72;;;1.60;;
26516;SDS011;14190;51.342;6.338;2024-02-21T10:14:03;2.15;;;1.45;;
26516;SDS011;14190;51.342;6.338;2024-02-21T10:16:31;1.20;;;0.60;;
26516;SDS011;14190;51.342;6.338;2024-02-21T10:18:59;3.90;;;1.10;;
26516;SDS011;14190;51.342;6.338;2024-02-21T10:21:27;2.30;;;1.72;;
26516;SDS011;14190;51.342;6.338;2024-02-21T10:23:54;3.17;;;1.27;;
26516;SDS011;14190;51.342;6.338;2024-02-21T10:26:21;2.02;;;0.88;;
26516;SDS011;14190;51.342;6.338;2024-02-21T10:28:49;1.07;;;0.80;;
26516;SDS011;14190;51.342;6.338;2024-02-21T10:31:26;12.73;;;2.02;;
26516;SDS011;14190;51.342;6.338;2024-02-21T10:33:57;6.17;;;0.75;;
26516;SDS011;14190;51.342;6.338;2024-02-21T10:36:24;2.17;;;0.90;;
26516;SDS011;14190;51.342;6.338;2024-02-21T10:38:52;13.50;;;1.27;;
26516;SDS011;14190;51.342;6.338;2024-02-21T10:41:20;3.85;;;1.32;;
26516;SDS011;14190;51.342;6.338;2024-02-21T10:43:52;0.88;;;0.88;;
26516;SDS011;14190;51.342;6.338;2024-02-21T10:46:23;4.62;;;1.87;;
26516;SDS011;14190;51.342;6.338;2024-02-21T10:48:56;0.68;;;0.62;;
26516;SDS011;14190;51.342;6.338;2024-02-21T10:51:20;1.35;;;1.17;;
26516;SDS011;14190;51.342;6.338;2024-02-21T10:56:22;2.22;;;0.85;;
26516;SDS011;14190;51.342;6.338;2024-02-21T10:58:50;2.85;;;0.90;;
26516;SDS011;14190;51.342;6.338;2024-02-21T11:01:18;0.60;;;0.60;;
26516;SDS011;14190;51.342;6.338;2024-02-21T11:03:45;5.03;;;1.17;;
26516;SDS011;14190;51.342;6.338;2024-02-21T11:06:14;1.35;;;0.98;;
26516;SDS011;14190;51.342;6.338;2024-02-21T11:08:42;1.98;;;1.05;;
26516;SDS011;14190;51.342;6.338;2024-02-21T11:11:12;1.65;;;1.00;;
26516;SDS011;14190;51.342;6.338;2024-02-21T11:13:41;4.28;;;1.25;;
26516;SDS011;14190;51.342;6.338;2024-02-21T11:16:09;4.50;;;1.37;;
26516;SDS011;14190;51.342;6.338;2024-02-21T11:18:37;1.65;;;0.78;;
26516;SDS011;14190;51.342;6.338;2024-02-21T11:21:05;1.05;;;0.75;;
26516;SDS011;14190;51.342;6.338;2024-02-21T11:23:32;1.82;;;1.52;;
26516;SDS011;14190;51.342;6.338;2024-02-21T11:26:09;4.80;;;0.95;;
26516;SDS011;14190;51.342;6.338;2024-02-21T11:28:36;1.02;;;0.93;;
26516;SDS011;14190;51.342;6.338;2024-02-21T11:31:10;1.25;;;1.15;;
26516;SDS011;14190;51.342;6.338;2024-02-21T11:33:33;1.85;;;0.70;;
26516;SDS011;14190;51.342;6.338;2024-02-21T11:36:01;8.75;;;1.65;;
26516;SDS011;14190;51.342;6.338;2024-02-21T11:38:30;1.62;;;0.75;;
26516;SDS011;14190;51.342;6.338;2024-02-21T11:40:57;2.45;;;1.62;;
26516;SDS011;14190;51.342;6.338;2024-02-21T11:43:25;2.40;;;1.17;;
26516;SDS011;14190;51.342;6.338;2024-02-21T11:46:03;2.12;;;1.02;;
26516;SDS011;14190;51.342;6.338;2024-02-21T11:48:27;8.30;;;1.30;;
26516;SDS011;14190;51.342;6.338;2024-02-21T11:50:57;2.12;;;0.82;;
26516;SDS011;14190;51.342;6.338;2024-02-21T11:53:27;2.45;;;1.30;;
26516;SDS011;14190;51.342;6.338;2024-02-21T11:55:56;1.37;;;1.10;;
26516;SDS011;14190;51.342;6.338;2024-02-21T11:58:24;4.58;;;1.67;;
26516;SDS011;14190;51.342;6.338;2024-02-21T12:00:52;1.22;;;1.07;;
26516;SDS011;14190;51.342;6.338;2024-02-21T12:03:20;2.12;;;1.22;;
26516;SDS011;14190;51.342;6.338;2024-02-21T12:05:47;2.05;;;0.80;;
26516;SDS011;14190;51.342;6.338;2024-02-21T12:08:15;1.87;;;1.25;;
26516;SDS011;14190;51.342;6.338;2024-02-21T12:10:42;1.92;;;1.22;;
26516;SDS011;14190;51.342;6.338;2024-02-21T12:13:10;1.57;;;0.72;;
26516;SDS011;14190;51.342;6.338;2024-02-21T12:15:40;3.08;;;1.30;;
26516;SDS011;14190;51.342;6.338;2024-02-21T12:18:09;6.15;;;1.67;;
26516;SDS011;14190;51.342;6.338;2024-02-21T12:20:37;1.40;;;0.70;;
26516;SDS011;14190;51.342;6.338;2024-02-21T12:23:08;5.03;;;0.85;;
26516;SDS011;14190;51.342;6.338;2024-02-21T12:25:33;1.37;;;1.27;;
26516;SDS011;14190;51.342;6.338;2024-02-21T12:28:00;1.07;;;0.98;;
26516;SDS011;14190;51.342;6.338;2024-02-21T12:30:29;1.65;;;0.80;;
26516;SDS011;14190;51.342;6.338;2024-02-21T12:32:58;1.65;;;0.98;;
26516;SDS011;14190;51.342;6.338;2024-02-21T12:35:28;2.35;;;1.37;;
26516;SDS011;14190;51.342;6.338;2024-02-21T12:37:55;2.30;;;1.67;;
26516;SDS011;14190;51.342;6.338;2024-02-21T12:40:22;2.12;;;1.75;;
26516;SDS011;14190;51.342;6.338;2024-02-21T12:42:50;1.45;;;0.60;;
26516;SDS011;14190;51.342;6.338;2024-02-21T12:45:19;2.47;;;1.50;;
26516;SDS011;14190;51.342;6.338;2024-02-21T12:47:46;3.00;;;1.42;;
26516;SDS011;14190;51.342;6.338;2024-02-21T12:50:13;1.25;;;0.65;;
26516;SDS011;14190;51.342;6.338;2024-02-21T12:52:41;2.83;;;0.82;;
26516;SDS011;14190;51.342;6.338;2024-02-21T12:55:08;2.40;;;1.70;;
26516;SDS011;14190;51.342;6.338;2024-02-21T12:57:37;1.52;;;0.93;;
26516;SDS011;14190;51.342;6.338;2024-02-21T13:00:04;3.22;;;1.50;;
26516;SDS011;14190;51.342;6.338;2024-02-21T13:02:34;1.02;;;0.93;;
26516;SDS011;14190;51.342;6.338;2024-02-21T13:05:01;0.88;;;0.85;;
26516;SDS011;14190;51.342;6.338;2024-02-21T13:07:29;1.62;;;0.82;;
26516;SDS011;14190;51.342;6.338;2024-02-21T13:09:58;13.43;;;1.47;;
26516;SDS011;14190;51.342;6.338;2024-02-21T13:12:26;4.30;;;1.15;;
26516;SDS011;14190;51.342;6.338;2024-02-21T13:14:54;1.98;;;1.05;;
26516;SDS011;14190;51.342;6.338;2024-02-21T13:17:21;1.90;;;0.57;;
26516;SDS011;14190;51.342;6.338;2024-02-21T13:19:48;12.98;;;1.15;;
26516;SDS011;14190;51.342;6.338;2024-02-21T13:22:16;2.85;;;1.60;;
26516;SDS011;14190;51.342;6.338;2024-02-21T13:24:43;5.30;;;0.78;;
26516;SDS011;14190;51.342;6.338;2024-02-21T13:27:11;2.80;;;0.75;;
26516;SDS011;14190;51.342;6.338;2024-02-21T13:29:39;1.72;;;0.70;;
26516;SDS011;14190;51.342;6.338;2024-02-21T13:32:06;5.92;;;0.93;;
26516;SDS011;14190;51.342;6.338;2024-02-21T13:34:34;1.00;;;0.88;;
26516;SDS011;14190;51.342;6.338;2024-02-21T13:37:01;2.33;;;2.05;;
26516;SDS011;14190;51.342;6.338;2024-02-21T13:39:30;1.62;;;1.07;;
26516;SDS011;14190;51.342;6.338;2024-02-21T13:41:58;4.65;;;1.47;;
26516;SDS011;14190;51.342;6.338;2024-02-21T13:44:26;4.58;;;0.70;;
26516;SDS011;14190;51.342;6.338;2024-02-21T13:46:53;5.67;;;1.17;;
26516;SDS011;14190;51.342;6.338;2024-02-21T13:49:21;1.40;;;1.30;;
26516;SDS011;14190;51.342;6.338;2024-02-21T13:51:48;1.77;;;0.98;;
26516;SDS011;14190;51.342;6.338;2024-02-21T13:54:15;2.08;;;1.45;;
26516;SDS011;14190;51.342;6.338;2024-02-21T13:56:45;3.55;;;2.17;;
26516;SDS011;14190;51.342;6.338;2024-02-21T13:59:12;2.95;;;0.57;;
26516;SDS011;14190;51.342;6.338;2024-02-21T14:01:43;1.00;;;0.70;;
26516;SDS011;14190;51.342;6.338;2024-02-21T14:04:10;1.72;;;0.78;;
26516;SDS011;14190;51.342;6.338;2024-02-21T14:06:38;10.10;;;0.68;;
26516;SDS011;14190;51.342;6.338;2024-02-21T14:09:07;1.07;;;1.07;;
26516;SDS011;14190;51.342;6.338;2024-02-21T14:11:35;2.05;;;1.07;;
26516;SDS011;14190;51.342;6.338;2024-02-21T14:14:04;0.72;;;0.70;;
26516;SDS011;14190;51.342;6.338;2024-02-21T14:16:32;4.53;;;1.05;;
26516;SDS011;14190;51.342;6.338;2024-02-21T14:18:59;1.95;;;0.93;;
26516;SDS011;14190;51.342;6.338;2024-02-21T14:21:26;1.45;;;1.27;;
26516;SDS011;14190;51.342;6.338;2024-02-21T14:23:55;1.52;;;1.30;;
26516;SDS011;14190;51.342;6.338;2024-02-21T14:26:23;2.45;;;1.90;;
26516;SDS011;14190;51.342;6.338;2024-02-21T14:28:50;1.47;;;0.50;;
26516;SDS011;14190;51.342;6.338;2024-02-21T14:31:17;1.30;;;0.65;;
26516;SDS011;14190;51.342;6.338;2024-02-21T14:33:45;2.33;;;1.12;;
26516;SDS011;14190;51.342;6.338;2024-02-21T14:36:13;1.62;;;1.27;;
26516;SDS011;14190;51.342;6.338;2024-02-21T14:38:41;2.40;;;1.42;;
26516;SDS011;14190;51.342;6.338;2024-02-21T14:41:12;1.75;;;0.50;;
26516;SDS011;14190;51.342;6.338;2024-02-21T14:43:40;1.72;;;0.98;;
26516;SDS011;14190;51.342;6.338;2024-02-21T14:46:07;1.00;;;1.00;;
26516;SDS011;14190;51.342;6.338;2024-02-21T14:48:35;0.72;;;0.62;;
26516;SDS011;14190;51.342;6.338;2024-02-21T14:51:02;3.35;;;1.67;;
26516;SDS011;14190;51.342;6.338;2024-02-21T14:53:30;1.60;;;1.15;;
26516;SDS011;14190;51.342;6.338;2024-02-21T14:55:57;0.80;;;0.50;;